Aviation Digital Data Service (ADDS)

Output produced by METARs form (1558 UTC 16 April 2014)
found at http://aviationweather.gov/adds/metars/
 
KPGV 161551Z 1616/1712 04013G20KT P6SM SKC 
     FM162200 06010KT P6SM SKC 
     FM170600 02005KT P6SM SCT025 AMD LTD TO CLD VIS AND WIND